Time;durP1;ratioP1;P1;durP2;ratioP2;P2;SDS_P1;SDS_P2;PMS_P1;PMS_P2;Temp;Humidity;BMP_temperature;BMP_pressure;BME280_temperature;BME280_humidity;BME280_pressure;Samples;Min_cycle;Max_cycle;Signal;HPM_P1;HPM_P2
2021/11/17 02:33:12;;;;;;;3.33;2.10;;;;;;;;;;21249431;27;20445;-67
2021/11/17 02:43:34;;;;;;;5.95;2.40;;;;;;;;;;21230190;27;20495;-65
2021/11/17 02:53:40;;;;;;;4.23;2.60;;;;;;;;;;21248845;28;20094;-63
2021/11/17 03:04:05;;;;;;;3.63;2.42;;;;;;;;;;21247737;28;20039;-66
2021/11/17 03:14:11;;;;;;;4.80;2.63;;;;;;;;;;21249753;28;20058;-66
2021/11/17 03:24:23;;;;;;;4.13;3.00;;;;;;;;;;21246994;28;20572;-63
2021/11/17 03:34:29;;;;;;;4.78;3.00;;;;;;;;;;21246876;28;20047;-64
2021/11/17 03:44:48;;;;;;;4.57;2.65;;;;;;;;;;21246456;28;20086;-67
2021/11/17 03:54:51;;;;;;;5.22;2.92;;;;;;;;;;21256035;27;20055;-65
2021/11/17 04:04:56;;;;;;;5.10;2.90;;;;;;;;;;21260593;27;20051;-65
2021/11/17 04:15:06;;;;;;;4.70;2.90;;;;;;;;;;21259703;27;20047;-62
2021/11/17 04:25:33;;;;;;;4.82;3.40;;;;;;;;;;21258704;27;20411;-64
2021/11/17 04:35:42;;;;;;;5.97;2.83;;;;;;;;;;20830931;28;20054;-64
2021/11/17 04:45:52;;;;;;;4.55;2.90;;;;;;;;;;20830139;28;20053;-64
2021/11/17 04:56:02;;;;;;;5.10;3.20;;;;;;;;;;20829541;28;20599;-66
2021/11/17 05:06:24;;;;;;;4.15;3.03;;;;;;;;;;20933501;27;20047;-56
2021/11/17 05:16:51;;;;;;;7.22;3.58;;;;;;;;;;21255329;27;20050;-64
2021/11/17 05:27:11;;;;;;;6.80;3.88;;;;;;;;;;21253925;27;20062;-56
2021/11/17 05:37:19;;;;;;;6.55;3.40;;;;;;;;;;21256134;27;20054;-65
2021/11/17 05:47:34;;;;;;;6.50;3.65;;;;;;;;;;21238427;27;20485;-62
2021/11/17 05:57:37;;;;;;;6.85;3.28;;;;;;;;;;21251440;27;20415;-63
2021/11/17 06:07:40;;;;;;;4.63;3.35;;;;;;;;;;21250919;27;20055;-62
2021/11/17 06:17:45;;;;;;;9.27;6.00;;;;;;;;;;21250688;27;20486;-64
2021/11/17 06:27:53;;;;;;;6.35;3.70;;;;;;;;;;21250031;27;20126;-63
2021/11/17 06:37:56;;;;;;;6.85;3.70;;;;;;;;;;21230802;27;20085;-65
2021/11/17 06:48:00;;;;;;;6.50;4.40;;;;;;;;;;21229553;27;20051;-64
2021/11/17 06:58:02;;;;;;;8.68;4.45;;;;;;;;;;21248048;28;20049;-63
2021/11/17 07:08:06;;;;;;;7.18;3.95;;;;;;;;;;21248142;28;20484;-66
2021/11/17 07:18:09;;;;;;;6.18;4.05;;;;;;;;;;21247801;28;20059;-64
2021/11/17 07:28:11;;;;;;;90.30;11.35;;;;;;;;;;21253094;27;20047;-63
2021/11/17 07:38:17;;;;;;;9.00;3.97;;;;;;;;;;21264475;27;20047;-56
2021/11/17 07:48:21;;;;;;;6.67;3.70;;;;;;;;;;21261863;27;20411;-55
2021/11/17 07:58:25;;;;;;;7.43;4.72;;;;;;;;;;21260380;27;20351;-64
2021/11/17 08:08:31;;;;;;;7.22;3.80;;;;;;;;;;21260952;27;20479;-63
2021/11/17 08:18:34;;;;;;;5.53;3.60;;;;;;;;;;21259262;27;20092;-64
2021/11/17 08:28:39;;;;;;;6.20;3.80;;;;;;;;;;21258683;27;20054;-64
2021/11/17 08:38:41;;;;;;;6.40;3.42;;;;;;;;;;21257136;27;20498;-64
2021/11/17 08:48:44;;;;;;;7.45;4.13;;;;;;;;;;21256957;27;20062;-64
2021/11/17 08:58:47;;;;;;;7.80;4.30;;;;;;;;;;21258081;27;20134;-64
2021/11/17 09:08:50;;;;;;;10.25;4.20;;;;;;;;;;21255643;27;20051;-63
2021/11/17 09:18:53;;;;;;;5.78;3.88;;;;;;;;;;21254375;27;20062;-63
2021/11/17 09:28:59;;;;;;;6.38;4.05;;;;;;;;;;21253334;27;20047;-63
2021/11/17 09:39:04;;;;;;;6.68;3.38;;;;;;;;;;21252959;27;20047;-64
2021/11/17 09:49:10;;;;;;;4.57;2.63;;;;;;;;;;21252014;27;20096;-63
2021/11/17 09:59:20;;;;;;;7.05;3.20;;;;;;;;;;21251463;27;20456;-62
2021/11/17 10:19:38;;;;;;;6.53;3.30;;;;;;;;;;21249714;27;20164;-63
2021/11/17 10:29:43;;;;;;;7.28;3.38;;;;;;;;;;21248852;27;20491;-64
2021/11/17 10:39:48;;;;;;;6.22;2.83;;;;;;;;;;21249777;27;20047;-59
2021/11/17 10:50:09;;;;;;;8.32;3.08;;;;;;;;;;21247884;27;20055;-66
2021/11/17 11:00:16;;;;;;;5.57;2.50;;;;;;;;;;21250494;27;20536;-63
2021/11/17 11:10:29;;;;;;;4.15;2.63;;;;;;;;;;21178776;28;20541;-64
2021/11/17 11:20:38;;;;;;;6.93;2.75;;;;;;;;;;21178308;28;20052;-57
2021/11/17 11:30:41;;;;;;;5.22;2.03;;;;;;;;;;21176862;28;20056;-58
2021/11/17 11:41:01;;;;;;;4.28;2.15;;;;;;;;;;21176711;28;20089;-63
2021/11/17 11:51:07;;;;;;;5.15;2.00;;;;;;;;;;21144621;28;20506;-75
2021/11/17 12:01:22;;;;;;;5.43;1.65;;;;;;;;;;21116227;27;20047;-62
2021/11/17 12:11:28;;;;;;;3.50;1.90;;;;;;;;;;21102785;28;20472;-60
2021/11/17 12:21:52;;;;;;;2.80;1.67;;;;;;;;;;21159945;28;20043;-60
2021/11/17 12:31:58;;;;;;;3.15;1.77;;;;;;;;;;21154631;28;20051;-59
2021/11/17 12:42:02;;;;;;;2.65;1.45;;;;;;;;;;21172006;28;20083;-60
2021/11/17 12:52:07;;;;;;;2.83;1.70;;;;;;;;;;21152776;28;20527;-60
2021/11/17 13:02:31;;;;;;;4.57;1.90;;;;;;;;;;21170349;28;20044;-59
2021/11/17 13:12:38;;;;;;;4.40;1.77;;;;;;;;;;21152010;28;20120;-59
2021/11/17 13:22:55;;;;;;;2.63;1.45;;;;;;;;;;21160287;28;20131;-60
2021/11/17 13:32:59;;;;;;;2.33;1.65;;;;;;;;;;21167543;28;20062;-60
2021/11/17 13:43:02;;;;;;;2.47;1.77;;;;;;;;;;21167369;28;20532;-60
2021/11/17 13:53:06;;;;;;;4.10;1.85;;;;;;;;;;21148060;28;20127;-60
2021/11/17 14:03:08;;;;;;;9.57;7.57;;;;;;;;;;21147542;28;20094;-61
2021/11/17 14:13:12;;;;;;;3.10;1.40;;;;;;;;;;21148098;28;20051;-62
2021/11/17 14:23:16;;;;;;;2.13;1.45;;;;;;;;;;21164917;28;20510;-60
2021/11/17 14:33:21;;;;;;;3.87;1.07;;;;;;;;;;21162985;28;20062;-59
2021/11/17 14:43:26;;;;;;;4.03;1.20;;;;;;;;;;21163546;28;20480;-59
2021/11/17 14:53:28;;;;;;;3.35;1.02;;;;;;;;;;21162735;28;20051;-59
2021/11/17 15:03:31;;;;;;;3.97;1.80;;;;;;;;;;21163394;28;20548;-60
2021/11/17 15:13:34;;;;;;;1.88;1.20;;;;;;;;;;21162469;28;20072;-60
2021/11/17 15:23:37;;;;;;;2.00;1.15;;;;;;;;;;21162157;28;20051;-60
2021/11/17 15:33:39;;;;;;;1.90;0.90;;;;;;;;;;21077856;28;20504;-61
2021/11/17 15:43:43;;;;;;;3.35;1.45;;;;;;;;;;21076785;28;20063;-60
2021/11/17 15:53:47;;;;;;;3.37;1.30;;;;;;;;;;21090639;28;20389;-59
2021/11/17 16:03:52;;;;;;;2.17;1.30;;;;;;;;;;21091934;28;20047;-60
2021/11/17 16:13:57;;;;;;;4.25;1.35;;;;;;;;;;21090146;28;20055;-59
2021/11/17 16:34:24;;;;;;;1.95;1.10;;;;;;;;;;21172341;28;20051;-60
2021/11/17 16:44:26;;;;;;;3.67;1.30;;;;;;;;;;21172151;28;20047;-59
2021/11/17 16:54:30;;;;;;;2.78;1.58;;;;;;;;;;21153782;28;20047;-60
2021/11/17 17:04:32;;;;;;;2.92;1.15;;;;;;;;;;21170464;28;20043;-59
2021/11/17 17:14:35;;;;;;;4.32;2.15;;;;;;;;;;21171136;28;20097;-60
2021/11/17 17:24:37;;;;;;;5.65;1.85;;;;;;;;;;21151949;28;20051;-60
2021/11/17 17:34:39;;;;;;;3.28;1.77;;;;;;;;;;21167795;28;20052;-59
2021/11/17 17:44:42;;;;;;;8.98;2.80;;;;;;;;;;21168254;28;20067;-60
2021/11/17 17:54:46;;;;;;;3.47;1.80;;;;;;;;;;21166224;28;20408;-58
2021/11/17 18:04:49;;;;;;;4.20;2.17;;;;;;;;;;21146551;28;20444;-59
2021/11/17 18:14:51;;;;;;;15.00;8.27;;;;;;;;;;21145510;28;20059;-61
2021/11/17 18:24:53;;;;;;;8.27;3.92;;;;;;;;;;21163841;28;20052;-59
2021/11/17 18:34:56;;;;;;;8.80;4.25;;;;;;;;;;21163060;28;20499;-59
2021/11/17 18:44:58;;;;;;;7.20;3.30;;;;;;;;;;21163853;28;20055;-55
2021/11/17 18:55:00;;;;;;;6.75;3.92;;;;;;;;;;21162964;28;20055;-54
2021/11/17 19:05:04;;;;;;;6.20;2.83;;;;;;;;;;21162803;28;20040;-57
2021/11/17 19:15:06;;;;;;;6.78;4.07;;;;;;;;;;21145143;28;20043;-60
2021/11/17 19:25:08;;;;;;;10.68;3.83;;;;;;;;;;21222932;27;20043;-62
2021/11/17 19:35:10;;;;;;;7.18;4.32;;;;;;;;;;21198030;27;20143;-57
2021/11/17 19:45:13;;;;;;;5.57;3.88;;;;;;;;;;21176011;28;20043;-60
2021/11/17 19:55:16;;;;;;;6.93;3.47;;;;;;;;;;21175916;28;20052;-59
2021/11/17 20:05:18;;;;;;;5.63;3.35;;;;;;;;;;21175334;28;20105;-59
2021/11/17 20:15:39;;;;;;;5.65;2.67;;;;;;;;;;21174975;28;20043;-59
2021/11/17 20:25:43;;;;;;;4.47;2.38;;;;;;;;;;21173899;28;20055;-60
2021/11/17 20:35:45;;;;;;;4.80;2.60;;;;;;;;;;21171549;28;20476;-61
2021/11/17 20:45:48;;;;;;;5.85;2.55;;;;;;;;;;21154895;28;20044;-60
2021/11/17 20:55:50;;;;;;;7.20;2.60;;;;;;;;;;21171987;28;20044;-60
2021/11/17 21:05:53;;;;;;;6.13;2.50;;;;;;;;;;21171732;28;20044;-59
2021/11/17 21:15:55;;;;;;;4.38;2.30;;;;;;;;;;21169545;28;20109;-60
2021/11/17 21:25:57;;;;;;;4.50;2.33;;;;;;;;;;21168735;28;20047;-61
2021/11/17 21:36:00;;;;;;;2.53;1.48;;;;;;;;;;21168124;28;20051;-60
2021/11/17 21:46:02;;;;;;;8.75;3.58;;;;;;;;;;21167911;28;20176;-60
2021/11/17 21:56:04;;;;;;;8.70;5.07;;;;;;;;;;21166501;28;20048;-60
2021/11/17 22:06:09;;;;;;;4.25;2.70;;;;;;;;;;21166032;28;20047;-61
2021/11/17 22:16:13;;;;;;;;;;;;;;;;;;21165281;28;20051;-62
2021/11/17 22:26:16;;;;;;;3.17;1.83;;;;;;;;;;21164223;28;20011;-61
2021/11/17 22:36:19;;;;;;;3.95;1.90;;;;;;;;;;21164328;28;20051;-62
2021/11/17 22:46:22;;;;;;;3.60;2.00;;;;;;;;;;21165084;28;20071;-60
2021/11/17 22:56:25;;;;;;;2.80;1.63;;;;;;;;;;21162301;28;20052;-59
2021/11/17 23:06:27;;;;;;;3.53;1.45;;;;;;;;;;21163978;28;20044;-60
2021/11/17 23:16:30;;;;;;;3.03;1.77;;;;;;;;;;21162074;28;20056;-59
2021/11/17 23:26:33;;;;;;;2.90;1.40;;;;;;;;;;21161815;28;20074;-60
2021/11/17 23:36:35;;;;;;;2.35;1.42;;;;;;;;;;21161228;28;20044;-60
2021/11/17 23:46:38;;;;;;;1.95;1.17;;;;;;;;;;21161308;28;20056;-60
2021/11/17 23:56:42;;;;;;;2.95;1.70;;;;;;;;;;21142424;28;20043;-60
